KJYR

York Municipal Airport

York, Nebraska, USA
METAR KJYR 271155Z AUTO 22008KT 10SM CLR 22/17 A2985 RMK AO2
Observed Flight Rules
May-27 @ 11:55 UTC (10 minutes ago) Visual Flight Rules
Wind Visibility Clouds
220° at 8 knots 10 miles
  • Clear skies
Temperatures Readings
Current 22°C / 72°F
Dewpoint 17°C / 63°F
Humidity 73%
Altimeter 29.85" Hg
Pressure 1011 hPa
Elevation 509
METAR KJYR 271155Z AUTO 22008KT 10SM CLR 22/17 A2985 RMK AO2
Observed Flight Rules
May-27 @ 11:55 UTC
(10 minutes ago)
VFR
Wind Visibility
220° at 8 knots 10 miles
Clouds
  • Clear skies
Temperature Dewpoint
22°C / 72°F 17°C / 63°F
Humidity Altimeter Pressure
73% 29.85" Hg 1011 hPa